createdAt,value
2023-05-01T00:00:47.902Z,99779.58
2023-05-01T00:01:51.084Z,99778.78
2023-05-01T00:02:53.804Z,99785.00
2023-05-01T00:03:58.437Z,99773.56
2023-05-01T00:05:02.020Z,99790.58
2023-05-01T00:06:05.543Z,99783.51
2023-05-01T00:07:07.809Z,99785.36
2023-05-01T00:08:10.129Z,99781.80
2023-05-01T00:09:12.289Z,99782.78
2023-05-01T00:10:14.696Z,99780.27
2023-05-01T00:11:18.849Z,99777.63
2023-05-01T00:12:20.792Z,99782.25
2023-05-01T00:13:23.040Z,99784.77
2023-05-01T00:14:25.563Z,99776.10
2023-05-01T00:15:27.731Z,99774.38
2023-05-01T00:16:30.121Z,99775.41
2023-05-01T00:17:32.389Z,99785.81
2023-05-01T00:18:34.598Z,99787.53
2023-05-01T00:19:36.571Z,99782.25
2023-05-01T00:20:38.854Z,99785.12
2023-05-01T00:21:41.184Z,99779.10
2023-05-01T00:22:43.134Z,99794.95
2023-05-01T00:23:45.252Z,99788.63
2023-05-01T00:24:48.201Z,99796.68
2023-05-01T00:25:50.493Z,99797.73
2023-05-01T00:26:53.287Z,99796.14
2023-05-01T00:27:55.595Z,99801.52
2023-05-01T00:28:58.275Z,99801.52
2023-05-01T00:30:00.495Z,99793.72
2023-05-01T00:31:03.306Z,99802.57
2023-05-01T00:33:20.516Z,99800.24
2023-05-01T00:34:22.695Z,99798.33
2023-05-01T00:35:24.783Z,99789.42
2023-05-01T00:36:27.101Z,99794.89
2023-05-01T00:37:29.291Z,99802.09
2023-05-01T00:38:31.574Z,99798.52
2023-05-01T00:39:34.317Z,99797.59
2023-05-01T00:41:53.814Z,99791.78
2023-05-01T00:42:56.701Z,99799.85
2023-05-01T00:43:58.965Z,99800.66
2023-05-01T00:45:01.240Z,99799.73
2023-05-01T00:46:03.778Z,99802.25
2023-05-01T00:47:06.448Z,99804.16
2023-05-01T00:48:09.670Z,99796.29
2023-05-01T00:49:12.044Z,99803.42
2023-05-01T00:50:16.261Z,99802.49
2023-05-01T00:51:20.487Z,99802.44
2023-05-01T00:52:25.032Z,99798.80
2023-05-01T00:53:27.504Z,99798.87
2023-05-01T00:54:29.683Z,99796.29
2023-05-01T00:55:32.279Z,99800.66
2023-05-01T00:56:34.827Z,99803.17
2023-05-01T00:57:37.430Z,99812.02
2023-05-01T00:58:40.141Z,99809.38
2023-05-01T00:59:42.905Z,99811.09
2023-05-01T01:00:45.310Z,99819.14
2023-05-01T01:01:47.746Z,99818.34
2023-05-01T01:02:50.460Z,99815.70
2023-05-01T01:03:52.806Z,99819.14
2023-05-01T01:04:55.203Z,99813.92
2023-05-01T01:06:18.369Z,99818.22
2023-05-01T01:07:49.411Z,99817.30
2023-05-01T01:10:46.910Z,99825.20
2023-05-01T01:12:17.552Z,99831.31
2023-05-01T01:13:38.616Z,99833.73
2023-05-01T01:15:06.228Z,99837.97
2023-05-01T01:16:15.489Z,99841.22
2023-05-01T01:17:33.430Z,99846.34
2023-05-01T01:18:42.569Z,99846.22
2023-05-01T01:20:17.423Z,99846.09
2023-05-01T01:22:44.879Z,99837.31
2023-05-01T01:24:10.822Z,99838.55
2023-05-01T01:25:31.830Z,99844.51
2023-05-01T01:26:40.584Z,99840.59
2023-05-01T01:28:14.673Z,99841.19
2023-05-01T01:29:23.284Z,99840.13
2023-05-01T01:30:45.155Z,99833.63
2023-05-01T01:32:08.881Z,99831.77
2023-05-01T01:33:36.079Z,99829.00
2023-05-01T01:35:59.715Z,99826.41
2023-05-01T01:37:23.947Z,99824.20
2023-05-01T01:39:55.105Z,99819.84
2023-05-01T01:41:13.825Z,99833.59
2023-05-01T01:42:19.628Z,99836.06
2023-05-01T01:43:24.208Z,99835.00
2023-05-01T01:45:46.080Z,99825.42
2023-05-01T01:46:52.751Z,99822.43
2023-05-01T01:47:56.682Z,99824.94
2023-05-01T01:49:02.465Z,99832.71
2023-05-01T01:50:07.233Z,99841.44
2023-05-01T01:52:25.129Z,99832.78
2023-05-01T01:53:30.073Z,99829.65
2023-05-01T01:54:39.776Z,99826.08
2023-05-01T01:55:44.521Z,99829.52
2023-05-01T01:56:50.024Z,99813.46
2023-05-01T01:57:53.283Z,99819.47
2023-05-01T01:58:57.800Z,99825.52
2023-05-01T02:00:00.017Z,99831.61
2023-05-01T02:01:03.880Z,99821.80
2023-05-01T02:02:08.360Z,99832.22
2023-05-01T02:03:12.991Z,99836.59
2023-05-01T02:04:17.621Z,99835.66
2023-05-01T02:05:21.220Z,99838.16
2023-05-01T02:06:25.440Z,99840.67
2023-05-01T02:07:30.086Z,99841.53
2023-05-01T02:08:35.056Z,99840.53
2023-05-01T02:09:39.940Z,99841.29
2023-05-01T02:10:45.010Z,99833.34
2023-05-01T02:11:48.995Z,99843.80
2023-05-01T02:12:53.613Z,99842.00
2023-05-01T02:13:58.893Z,99838.36
2023-05-01T02:15:02.014Z,99844.52
2023-05-01T02:16:05.579Z,99846.23
2023-05-01T02:17:10.298Z,99847.95
2023-05-01T02:18:14.655Z,99847.95
2023-05-01T02:19:18.392Z,99850.67
2023-05-01T02:20:21.749Z,99857.69
2023-05-01T02:21:25.270Z,99853.31
2023-05-01T02:22:29.150Z,99855.89
2023-05-01T02:23:31.606Z,99854.11
2023-05-01T02:24:36.379Z,99857.69
2023-05-01T02:25:39.816Z,99861.27
2023-05-01T02:26:45.074Z,99863.91
2023-05-01T02:28:03.505Z,99865.77
2023-05-01T02:29:05.818Z,99868.42
2023-05-01T02:30:11.811Z,99870.34
2023-05-01T02:31:14.219Z,99876.58
2023-05-01T02:32:17.082Z,99870.42
2023-05-01T02:33:20.072Z,99870.59
2023-05-01T02:34:22.396Z,99867.94
2023-05-01T02:35:24.703Z,99875.09
2023-05-01T02:36:26.759Z,99871.59
2023-05-01T02:37:29.133Z,99879.47
2023-05-01T02:38:31.384Z,99865.44
2023-05-01T02:39:34.466Z,99874.17
2023-05-01T02:40:38.708Z,99873.31
2023-05-01T02:41:41.684Z,99868.08
2023-05-01T02:42:45.297Z,99870.73
2023-05-01T02:43:51.054Z,99869.88
2023-05-01T02:46:14.123Z,99864.98
2023-05-01T02:47:20.725Z,99872.59
2023-05-01T02:49:37.960Z,99882.59
2023-05-01T02:50:42.673Z,99882.32
2023-05-01T02:51:46.764Z,99887.48
2023-05-01T02:52:50.758Z,99889.34
2023-05-01T02:54:01.620Z,99891.12
2023-05-01T02:55:04.606Z,99883.11
2023-05-01T02:56:07.770Z,99886.62
2023-05-01T02:57:10.957Z,99887.55
2023-05-01T02:58:17.216Z,99890.20
2023-05-01T02:59:19.320Z,99893.63
2023-05-01T03:00:21.667Z,99888.34
2023-05-01T03:01:23.922Z,99897.08
2023-05-01T03:02:26.257Z,99902.37
2023-05-01T03:03:28.527Z,99901.44
2023-05-01T03:04:30.816Z,99902.37
2023-05-01T03:05:32.933Z,99903.30
2023-05-01T03:06:36.438Z,99908.66
2023-05-01T03:07:38.602Z,99910.45
2023-05-01T03:08:41.342Z,99909.66
2023-05-01T03:09:44.008Z,99914.03
2023-05-01T03:10:46.178Z,99911.38
2023-05-01T03:11:48.701Z,99910.52
2023-05-01T03:12:51.020Z,99918.53
2023-05-01T03:13:53.282Z,99913.23
2023-05-01T03:14:55.910Z,99915.09
2023-05-01T03:15:58.088Z,99911.66
2023-05-01T03:17:00.503Z,99911.66
2023-05-01T03:18:03.530Z,99911.66
2023-05-01T03:19:05.889Z,99913.38
2023-05-01T03:20:08.764Z,99908.87
2023-05-01T03:21:11.016Z,99911.52
2023-05-01T03:22:13.188Z,99914.95
2023-05-01T03:23:15.410Z,99914.81
2023-05-01T03:24:17.691Z,99910.38
2023-05-01T03:25:20.742Z,99914.68
2023-05-01T03:26:23.447Z,99915.30
2023-05-01T03:27:26.155Z,99921.39
2023-05-01T03:28:30.410Z,99913.23
2023-05-01T03:29:33.460Z,99917.43
2023-05-01T03:30:36.417Z,99927.03
2023-05-01T03:31:38.733Z,99928.75
2023-05-01T03:32:42.701Z,99925.23
2023-05-01T03:33:47.381Z,99924.31
2023-05-01T03:34:51.488Z,99924.37
2023-05-01T03:36:05.275Z,99920.80
2023-05-01T03:37:08.302Z,99925.96
2023-05-01T03:38:10.972Z,99928.54
2023-05-01T03:39:31.558Z,99926.61
2023-05-01T03:41:47.332Z,99919.46
2023-05-01T03:42:54.177Z,99926.16
2023-05-01T03:43:58.564Z,99922.36
2023-05-01T03:45:11.792Z,99928.34
2023-05-01T03:46:15.078Z,99932.43
2023-05-01T03:47:17.739Z,99933.22
2023-05-01T03:48:20.228Z,99934.94
2023-05-01T03:49:22.812Z,99940.06
2023-05-01T03:50:26.056Z,99934.62
2023-05-01T03:51:28.847Z,99937.27
2023-05-01T03:52:31.443Z,99940.78
2023-05-01T03:53:34.387Z,99942.64
2023-05-01T03:54:38.770Z,99942.56
2023-05-01T03:55:57.929Z,99939.92
2023-05-01T03:57:00.270Z,99944.28
2023-05-01T03:58:02.536Z,99943.36
2023-05-01T03:59:05.930Z,99950.38
2023-05-01T04:00:09.538Z,99952.24
2023-05-01T04:01:17.703Z,99946.08
2023-05-01T04:02:20.148Z,99954.11
2023-05-01T04:03:22.894Z,99948.80
2023-05-01T04:04:27.142Z,99954.96
2023-05-01T04:05:31.332Z,99952.38
2023-05-01T04:06:35.813Z,99954.96
2023-05-01T04:07:38.678Z,99961.13
2023-05-01T04:08:41.560Z,99952.38
2023-05-01T04:09:44.417Z,99950.52
2023-05-01T04:10:46.842Z,99953.24
2023-05-01T04:11:49.050Z,99965.81
2023-05-01T04:12:51.697Z,99952.56
2023-05-01T04:13:54.155Z,99963.16
2023-05-01T04:14:56.308Z,99963.16
2023-05-01T04:15:58.584Z,99962.30
2023-05-01T04:17:01.735Z,99968.61
2023-05-01T04:18:04.113Z,99966.88
2023-05-01T04:19:06.875Z,99970.47
2023-05-01T04:20:11.440Z,99965.17
2023-05-01T04:21:14.298Z,99974.05
2023-05-01T04:22:16.580Z,99965.31
2023-05-01T04:23:20.117Z,99968.81
2023-05-01T04:24:22.874Z,99965.38
2023-05-01T04:25:24.970Z,99961.86
2023-05-01T04:26:29.178Z,99974.19
2023-05-01T04:27:32.141Z,99979.48
2023-05-01T04:28:35.035Z,99972.40
2023-05-01T04:29:38.167Z,99973.26
2023-05-01T04:30:40.526Z,99985.58
2023-05-01T04:31:43.691Z,99980.28
2023-05-01T04:32:45.992Z,99974.12
2023-05-01T04:33:48.776Z,99987.23
2023-05-01T04:34:51.068Z,99979.28
2023-05-01T04:35:53.622Z,99979.20
2023-05-01T04:36:56.289Z,99988.81
2023-05-01T04:37:58.828Z,99985.23
2023-05-01T04:39:01.265Z,99982.47
2023-05-01T04:40:04.768Z,99984.13
2023-05-01T04:41:07.185Z,99983.12
2023-05-01T04:42:09.532Z,99985.63
2023-05-01T04:43:12.957Z,99988.21
2023-05-01T04:44:16.255Z,99980.11
2023-05-01T04:45:18.320Z,99989.69
2023-05-01T04:46:21.143Z,99992.19
2023-05-01T04:47:23.369Z,99983.23
2023-05-01T04:48:25.912Z,99984.88
2023-05-01T04:49:28.216Z,99988.32
2023-05-01T04:50:30.924Z,99987.31
2023-05-01T04:51:33.218Z,99992.44
2023-05-01T04:52:36.105Z,99994.09
2023-05-01T04:53:38.938Z,99994.02
2023-05-01T04:54:42.934Z,99992.94
2023-05-01T04:55:45.375Z,99995.52
2023-05-01T04:56:50.124Z,99995.34
2023-05-01T04:57:52.448Z,100003.16
2023-05-01T04:58:55.505Z,100001.28
2023-05-01T04:59:59.657Z,100001.14
2023-05-01T05:01:02.010Z,100003.72
2023-05-01T05:02:04.324Z,100006.30
2023-05-01T05:03:06.703Z,100007.08
2023-05-01T05:04:09.686Z,100007.84
2023-05-01T05:05:11.981Z,100011.27
2023-05-01T05:06:15.287Z,100015.58
2023-05-01T05:07:17.477Z,100019.87
2023-05-01T05:08:24.637Z,100014.42
2023-05-01T05:09:28.701Z,100019.55
2023-05-01T05:10:31.680Z,100022.91
2023-05-01T05:11:38.642Z,100021.04
2023-05-01T05:12:50.286Z,100027.14
2023-05-01T05:13:58.594Z,100019.02
2023-05-01T05:15:04.074Z,100018.02
2023-05-01T05:16:11.224Z,100021.42
2023-05-01T05:17:19.485Z,100038.13
2023-05-01T05:18:25.977Z,100029.23
2023-05-01T05:19:31.058Z,100027.36
2023-05-01T05:20:37.840Z,100029.94
2023-05-01T05:21:40.457Z,100020.18
2023-05-01T05:22:48.191Z,100027.21
2023-05-01T05:23:53.864Z,100031.59
2023-05-01T05:25:02.430Z,100032.37
2023-05-01T05:26:22.499Z,100024.33
2023-05-01T05:27:32.262Z,100035.62
2023-05-01T05:30:04.612Z,100034.49
2023-05-01T05:32:22.120Z,100036.12
2023-05-01T05:33:24.489Z,100050.64
2023-05-01T05:34:26.859Z,100047.05
2023-05-01T05:35:29.894Z,100050.48
2023-05-01T05:36:32.458Z,100050.34
2023-05-01T05:37:34.760Z,100050.34
2023-05-01T05:38:37.410Z,100048.42
2023-05-01T05:39:41.015Z,100045.77
2023-05-01T05:40:43.883Z,100053.59
2023-05-01T05:41:47.168Z,100051.71
2023-05-01T05:42:49.707Z,100051.56
2023-05-01T05:43:51.899Z,100064.69
2023-05-01T05:44:53.974Z,100046.09
2023-05-01T05:45:58.301Z,100068.13
2023-05-01T05:47:01.595Z,100060.91
2023-05-01T05:48:05.780Z,100058.17
2023-05-01T05:49:09.454Z,100052.78
2023-05-01T05:50:12.376Z,100056.22
2023-05-01T05:51:15.032Z,100054.34
2023-05-01T05:52:17.336Z,100062.23
2023-05-01T05:53:24.383Z,100048.87
2023-05-01T05:54:26.648Z,100066.53
2023-05-01T05:55:29.293Z,100075.09
2023-05-01T05:56:36.606Z,100074.94
2023-05-01T05:57:38.898Z,100069.62
2023-05-01T05:58:41.942Z,100071.27
2023-05-01T05:59:44.188Z,100073.06
2023-05-01T06:00:50.998Z,100078.38
2023-05-01T06:01:54.686Z,100075.72
2023-05-01T06:02:57.563Z,100085.41
2023-05-01T06:04:01.401Z,100080.09
2023-05-01T06:05:04.993Z,100079.16
2023-05-01T06:06:07.967Z,100083.53
2023-05-01T06:07:10.451Z,100085.17
2023-05-01T06:08:13.673Z,100083.19
2023-05-01T06:09:16.177Z,100097.27
2023-05-01T06:10:18.457Z,100100.70
2023-05-01T06:11:21.158Z,100104.14
2023-05-01T06:12:23.472Z,100096.08
2023-05-01T06:13:26.861Z,100100.38
2023-05-01T06:14:29.016Z,100087.09
2023-05-01T06:15:31.191Z,100108.25
2023-05-01T06:16:34.514Z,100104.48
2023-05-01T06:17:37.218Z,100107.06
2023-05-01T06:18:39.604Z,100110.51
2023-05-01T06:19:41.894Z,100103.31
2023-05-01T06:20:45.534Z,100113.01
2023-05-01T06:21:47.905Z,100115.51
2023-05-01T06:22:50.187Z,100115.31
2023-05-01T06:23:54.732Z,100104.67
2023-05-01T06:24:58.838Z,100105.37
2023-05-01T06:26:02.053Z,100124.69
2023-05-01T06:27:05.560Z,100105.91
2023-05-01T06:28:08.206Z,100122.61
2023-05-01T06:29:12.394Z,100110.88
2023-05-01T06:30:15.325Z,100119.63
2023-05-01T06:31:17.752Z,100120.48
2023-05-01T06:32:21.781Z,100120.33
2023-05-01T06:33:24.530Z,100121.19
2023-05-01T06:34:29.185Z,100121.02
2023-05-01T06:35:32.538Z,100129.75
2023-05-01T06:36:34.752Z,100129.59
2023-05-01T06:37:38.019Z,100120.58
2023-05-01T06:38:41.384Z,100122.22
2023-05-01T06:39:45.260Z,100112.27
2023-05-01T06:40:49.041Z,100127.09
2023-05-01T06:41:51.007Z,100124.27
2023-05-01T06:42:53.575Z,100125.98
2023-05-01T06:43:57.662Z,100130.28
2023-05-01T06:45:00.391Z,100125.82
2023-05-01T06:46:03.778Z,100124.80
2023-05-01T06:47:06.372Z,100123.66
2023-05-01T06:48:08.620Z,100123.57
2023-05-01T06:49:10.902Z,100126.02
2023-05-01T06:50:14.883Z,100124.26
2023-05-01T06:51:16.836Z,100136.50
2023-05-01T06:52:19.495Z,100123.02
2023-05-01T06:53:21.770Z,100126.42
2023-05-01T06:54:24.058Z,100137.84
2023-05-01T06:55:27.278Z,100135.09
2023-05-01T06:56:29.697Z,100135.02
2023-05-01T06:57:32.809Z,100138.45
2023-05-01T06:58:35.011Z,100131.23
2023-05-01T06:59:37.575Z,100135.62
2023-05-01T07:00:39.879Z,100129.34
2023-05-01T07:01:42.126Z,100140.74
2023-05-01T07:02:44.914Z,100132.66
2023-05-01T07:03:47.284Z,100131.64
2023-05-01T07:04:49.353Z,100140.41
2023-05-01T07:05:51.375Z,100133.95
2023-05-01T07:06:53.750Z,100139.11
2023-05-01T07:08:01.225Z,100145.02
2023-05-01T07:09:00.272Z,100148.28
2023-05-01T07:10:03.397Z,100139.16
2023-05-01T07:11:06.792Z,100142.39
2023-05-01T07:12:08.912Z,100154.59
2023-05-01T07:13:11.375Z,100143.77
2023-05-01T07:14:13.967Z,100147.20
2023-05-01T07:15:16.511Z,100152.33
2023-05-01T07:16:18.808Z,100171.58
2023-05-01T07:17:21.084Z,100167.11
2023-05-01T07:18:23.326Z,100163.50
2023-05-01T07:19:25.492Z,100160.74
2023-05-01T07:20:28.032Z,100164.17
2023-05-01T07:21:30.028Z,100164.95
2023-05-01T07:22:32.019Z,100163.02
2023-05-01T07:23:34.918Z,100159.41
2023-05-01T07:24:36.932Z,100169.13
2023-05-01T07:25:38.908Z,100175.23
2023-05-01T07:26:41.197Z,100176.86
2023-05-01T07:27:44.168Z,100173.16
2023-05-01T07:28:46.426Z,100175.64
2023-05-01T07:29:50.098Z,100167.65
2023-05-01T07:30:52.996Z,100175.44
2023-05-01T07:31:55.729Z,100176.20
2023-05-01T07:32:58.079Z,100182.31
2023-05-01T07:34:00.135Z,100182.13
2023-05-01T07:35:02.600Z,100176.63
2023-05-01T07:36:05.061Z,100178.89
2023-05-01T07:37:08.149Z,100177.77
2023-05-01T07:38:10.398Z,100180.16
2023-05-01T07:39:13.122Z,100172.07
2023-05-01T07:40:16.097Z,100185.11
2023-05-01T07:41:18.506Z,100191.21
2023-05-01T07:42:21.723Z,100178.64
2023-05-01T07:43:23.860Z,100183.20
2023-05-01T07:44:26.858Z,100184.06
2023-05-01T07:45:29.756Z,100197.31
2023-05-01T07:46:32.767Z,100181.12
2023-05-01T07:47:35.176Z,100187.10
2023-05-01T07:48:39.018Z,100192.30
2023-05-01T07:49:41.430Z,100198.31
2023-05-01T07:50:43.594Z,100186.77
2023-05-01T07:51:46.886Z,100201.06
2023-05-01T07:52:48.976Z,100186.00
2023-05-01T07:53:51.127Z,100188.67
2023-05-01T07:54:53.769Z,100187.72
2023-05-01T07:56:07.292Z,100188.48
2023-05-01T07:57:09.501Z,100195.55
2023-05-01T07:58:11.470Z,100193.64
2023-05-01T07:59:15.517Z,100200.61
2023-05-01T08:00:18.182Z,100196.13
2023-05-01T08:01:20.222Z,100203.92
2023-05-01T08:02:22.687Z,100204.69
2023-05-01T08:03:27.174Z,100197.36
2023-05-01T08:04:29.774Z,100190.11
2023-05-01T08:05:31.976Z,100192.50
2023-05-01T08:06:34.773Z,100193.91
2023-05-01T08:07:37.230Z,100196.30
2023-05-01T08:08:39.429Z,100206.67
2023-05-01T08:09:41.595Z,100212.69
2023-05-01T08:10:43.976Z,100196.47
2023-05-01T08:11:46.049Z,100206.97
2023-05-01T08:12:48.197Z,100203.34
2023-05-01T08:13:50.299Z,100202.30
2023-05-01T08:14:52.707Z,100211.90
2023-05-01T08:15:55.315Z,100207.99
2023-05-01T08:16:57.659Z,100209.42
2023-05-01T08:17:59.843Z,100211.78
2023-05-01T08:19:02.719Z,100212.34
2023-05-01T08:20:05.756Z,100222.84
2023-05-01T08:21:09.964Z,100211.97
2023-05-01T08:22:12.228Z,100219.66
2023-05-01T08:23:15.906Z,100219.56
2023-05-01T08:24:18.204Z,100217.84
2023-05-01T08:25:20.858Z,100220.42
2023-05-01T08:26:23.143Z,100218.61
2023-05-01T08:27:26.117Z,100224.63
2023-05-01T08:28:28.349Z,100225.38
2023-05-01T08:29:30.613Z,100222.71
2023-05-01T08:30:33.720Z,100221.76
2023-05-01T08:31:36.002Z,100221.76
2023-05-01T08:32:38.175Z,100228.81
2023-05-01T08:33:40.319Z,100228.69
2023-05-01T08:34:42.557Z,100226.02
2023-05-01T08:35:44.701Z,100221.76
2023-05-01T08:36:47.356Z,100229.02
2023-05-01T08:37:49.495Z,100228.34
2023-05-01T08:38:51.686Z,100229.20
2023-05-01T08:39:54.560Z,100221.19
2023-05-01T08:40:57.051Z,100221.95
2023-05-01T08:41:59.194Z,100227.10
2023-05-01T08:43:01.589Z,100228.59
2023-05-01T08:44:04.612Z,100225.83
2023-05-01T08:45:11.181Z,100229.16
2023-05-01T08:46:17.650Z,100230.69
2023-05-01T08:47:21.397Z,100235.08
2023-05-01T08:48:25.647Z,100227.78
2023-05-01T08:49:29.937Z,100227.78
2023-05-01T08:51:45.948Z,100225.95
2023-05-01T08:52:51.167Z,100234.45
2023-05-01T08:53:55.489Z,100235.22
2023-05-01T08:55:00.600Z,100230.66
2023-05-01T08:56:06.940Z,100237.50
2023-05-01T08:57:11.161Z,100239.22
2023-05-01T08:58:14.539Z,100251.53
2023-05-01T08:59:18.849Z,100233.47
2023-05-01T09:00:21.723Z,100225.45
2023-05-01T09:01:24.940Z,100226.22
2023-05-01T09:02:28.116Z,100246.65
2023-05-01T09:03:32.792Z,100246.42
2023-05-01T09:04:38.330Z,100227.59
2023-05-01T09:05:40.568Z,100232.84
2023-05-01T09:06:43.811Z,100257.68
2023-05-01T09:07:47.073Z,100257.48
2023-05-01T09:08:49.828Z,100248.50
2023-05-01T09:09:52.474Z,100250.02
2023-05-01T09:10:58.258Z,100245.39
2023-05-01T09:13:19.074Z,100246.41
2023-05-01T09:14:21.544Z,100259.62
2023-05-01T09:15:26.094Z,100258.77
2023-05-01T09:16:29.209Z,100258.57
2023-05-01T09:17:32.783Z,100256.75
2023-05-01T09:18:35.090Z,100258.57
2023-05-01T09:19:37.879Z,100238.69
2023-05-01T09:20:40.355Z,100252.72
2023-05-01T09:21:43.114Z,100262.23
2023-05-01T09:22:46.360Z,100267.19
2023-05-01T09:23:51.365Z,100269.95
2023-05-01T09:24:55.842Z,100262.03
2023-05-01T09:25:59.892Z,100258.83
2023-05-01T09:27:02.612Z,100260.65
2023-05-01T09:28:05.737Z,100252.62
2023-05-01T09:29:08.154Z,100247.27
2023-05-01T09:30:29.634Z,100253.14
2023-05-01T09:31:32.689Z,100259.05
2023-05-01T09:32:35.102Z,100272.98
2023-05-01T09:33:40.994Z,100264.83
2023-05-01T09:34:51.096Z,100263.14
2023-05-01T09:35:56.672Z,100261.09
2023-05-01T09:36:59.060Z,100262.70
2023-05-01T09:38:01.229Z,100261.64
2023-05-01T09:39:03.957Z,100266.79
2023-05-01T09:40:12.571Z,100272.91
2023-05-01T09:41:15.829Z,100258.66
2023-05-01T09:42:22.548Z,100263.87
2023-05-01T09:43:26.718Z,100266.55
2023-05-01T09:44:29.054Z,100257.56
2023-05-01T09:45:31.698Z,100265.39
2023-05-01T09:46:37.434Z,100271.30
2023-05-01T09:47:41.479Z,100271.09
2023-05-01T09:49:01.221Z,100274.52
2023-05-01T09:50:03.851Z,100264.88
2023-05-01T09:52:30.217Z,100270.75
2023-05-01T09:54:46.562Z,100273.02
2023-05-01T09:56:01.017Z,100271.30
2023-05-01T09:57:03.776Z,100278.92
2023-05-01T09:58:06.293Z,100277.72
2023-05-01T09:59:16.735Z,100282.02
2023-05-01T10:00:19.657Z,100286.20
2023-05-01T10:01:41.704Z,100294.23
2023-05-01T10:02:45.478Z,100285.23
2023-05-01T10:03:52.473Z,100283.34
2023-05-01T10:05:00.154Z,100289.31
2023-05-01T10:06:02.508Z,100285.92
2023-05-01T10:08:29.753Z,100266.61
2023-05-01T10:09:32.126Z,100282.77
2023-05-01T10:10:34.730Z,100300.77
2023-05-01T10:11:51.369Z,100296.57
2023-05-01T10:12:53.753Z,100293.89
2023-05-01T10:14:09.871Z,100294.00
2023-05-01T10:15:24.572Z,100287.06
2023-05-01T10:16:29.784Z,100277.92
2023-05-01T10:17:33.393Z,100271.50
2023-05-01T10:18:37.147Z,100279.23
2023-05-01T10:19:39.388Z,100273.59
2023-05-01T10:20:41.975Z,100279.35
2023-05-01T10:21:44.444Z,100280.97
2023-05-01T10:22:46.772Z,100281.72
2023-05-01T10:23:49.579Z,100284.61
2023-05-01T10:24:52.383Z,100276.27
2023-05-01T10:25:55.961Z,100280.19
2023-05-01T10:27:00.158Z,100293.17
2023-05-01T10:28:06.391Z,100285.34
2023-05-01T10:29:08.815Z,100270.03
2023-05-01T10:30:11.938Z,100287.81
2023-05-01T10:31:14.919Z,100293.79
2023-05-01T10:32:17.578Z,100299.80
2023-05-01T10:33:20.469Z,100295.30
2023-05-01T10:34:26.215Z,100297.87
2023-05-01T10:35:35.865Z,100301.31
2023-05-01T10:36:45.136Z,100302.20
2023-05-01T10:39:00.161Z,100286.11
2023-05-01T10:40:22.615Z,100298.63
2023-05-01T10:43:18.647Z,100292.00
2023-05-01T10:44:23.163Z,100305.26
2023-05-01T10:45:28.896Z,100296.16
2023-05-01T10:46:31.899Z,100306.48
2023-05-01T10:47:37.770Z,100307.11
2023-05-01T10:48:44.038Z,100295.33
2023-05-01T10:50:10.870Z,100288.80
2023-05-01T10:51:14.898Z,100299.06
2023-05-01T10:52:17.586Z,100299.39
2023-05-01T10:53:19.760Z,100300.04
2023-05-01T10:54:23.957Z,100300.66
2023-05-01T10:55:37.319Z,100306.98
2023-05-01T10:56:41.766Z,100301.76
2023-05-01T10:57:44.159Z,100291.86
2023-05-01T10:58:50.837Z,100301.62
2023-05-01T11:00:05.420Z,100302.27
2023-05-01T11:02:39.609Z,100291.41
2023-05-01T11:03:41.952Z,100294.77
2023-05-01T11:04:49.718Z,100301.73
2023-05-01T11:06:05.027Z,100299.80
2023-05-01T11:07:16.147Z,100292.48
2023-05-01T11:08:38.623Z,100309.20
2023-05-01T11:12:14.864Z,100302.09
2023-05-01T11:13:21.172Z,100304.70
2023-05-01T11:14:23.413Z,100304.92
2023-05-01T11:15:31.046Z,100302.34
2023-05-01T11:16:41.840Z,100313.82
2023-05-01T11:17:46.368Z,100308.56
2023-05-01T11:18:48.626Z,100312.96
2023-05-01T11:19:50.723Z,100297.73
2023-05-01T11:20:53.310Z,100310.17
2023-05-01T11:21:56.058Z,100311.03
2023-05-01T11:22:58.597Z,100318.43
2023-05-01T11:24:01.161Z,100316.61
2023-05-01T11:25:06.589Z,100311.24
2023-05-01T11:26:09.112Z,100308.45
2023-05-01T11:27:13.589Z,100302.98
2023-05-01T11:28:18.679Z,100306.09
2023-05-01T11:29:21.508Z,100293.09
2023-05-01T11:30:24.601Z,100303.38
2023-05-01T11:31:27.709Z,100313.64
2023-05-01T11:32:30.332Z,100309.77
2023-05-01T11:33:32.987Z,100317.50
2023-05-01T11:34:35.351Z,100311.27
2023-05-01T11:35:38.126Z,100301.30
2023-05-01T11:37:58.875Z,100314.66
2023-05-01T11:39:01.060Z,100314.45
2023-05-01T11:40:03.640Z,100318.86
2023-05-01T11:41:05.887Z,100311.06
2023-05-01T11:43:24.022Z,100301.79
2023-05-01T11:44:26.677Z,100303.77
2023-05-01T11:45:29.951Z,100306.13
2023-05-01T11:46:33.116Z,100305.27
2023-05-01T11:47:36.550Z,100300.55
2023-05-01T11:48:38.829Z,100303.23
2023-05-01T11:49:41.448Z,100308.48
2023-05-01T11:50:43.866Z,100310.80
2023-05-01T11:51:51.805Z,100302.65
2023-05-01T11:52:54.485Z,100303.39
2023-05-01T11:54:05.515Z,100312.52
2023-05-01T11:55:08.035Z,100309.34
2023-05-01T11:56:26.759Z,100308.81
2023-05-01T11:57:25.257Z,100302.70
2023-05-01T11:58:32.044Z,100311.71
2023-05-01T11:59:34.373Z,100303.66
2023-05-01T12:01:51.190Z,100316.31
2023-05-01T12:03:12.416Z,100312.57
2023-05-01T12:04:24.241Z,100299.80
2023-05-01T12:05:27.861Z,100303.72
2023-05-01T12:06:39.161Z,100321.10
2023-05-01T12:07:41.985Z,100319.91
2023-05-01T12:08:50.202Z,100315.90
2023-05-01T12:09:52.495Z,100313.66
2023-05-01T12:10:57.614Z,100317.09
2023-05-01T12:12:00.201Z,100321.72
2023-05-01T12:13:04.510Z,100315.37
2023-05-01T12:14:07.728Z,100316.13
2023-05-01T12:15:10.746Z,100318.28
2023-05-01T12:16:13.367Z,100315.49
2023-05-01T12:17:16.220Z,100318.92
2023-05-01T12:18:19.400Z,100325.89
2023-05-01T12:19:22.460Z,100310.76
2023-05-01T12:20:37.167Z,100317.59
2023-05-01T12:21:40.694Z,100328.10
2023-05-01T12:22:49.537Z,100320.57
2023-05-01T12:23:51.803Z,100322.52
2023-05-01T12:24:54.018Z,100324.45
2023-05-01T12:25:56.345Z,100326.16
2023-05-01T12:28:12.599Z,100321.81
2023-05-01T12:29:15.254Z,100332.17
2023-05-01T12:30:21.156Z,100325.83
2023-05-01T12:31:24.615Z,100319.23
2023-05-01T12:32:32.031Z,100318.90
2023-05-01T12:33:34.283Z,100330.16
2023-05-01T12:34:36.440Z,100329.94
2023-05-01T12:35:40.048Z,100331.87
2023-05-01T12:36:47.066Z,100333.81
2023-05-01T12:37:49.603Z,100334.89
2023-05-01T12:39:06.918Z,100334.05
2023-05-01T12:40:16.350Z,100331.36
2023-05-01T12:41:18.597Z,100331.47
2023-05-01T12:42:21.744Z,100330.12
2023-05-01T12:43:32.605Z,100326.69
2023-05-01T12:44:34.856Z,100326.91
2023-05-01T12:45:40.122Z,100328.84
2023-05-01T12:46:44.063Z,100327.88
2023-05-01T12:47:46.427Z,100326.16
2023-05-01T12:48:49.312Z,100331.31
2023-05-01T12:49:55.182Z,100324.12
2023-05-01T12:50:57.961Z,100327.66
2023-05-01T12:52:01.273Z,100329.38
2023-05-01T12:53:03.877Z,100335.71
2023-05-01T12:54:06.033Z,100335.60
2023-05-01T12:55:08.514Z,100329.12
2023-05-01T12:56:22.489Z,100339.86
2023-05-01T12:57:25.577Z,100340.86
2023-05-01T12:59:46.406Z,100330.16
2023-05-01T13:00:54.112Z,100321.20